sensor_id;sensor_type;location;lat;lon;timestamp;pressure;altitude;pressure_sealevel;temperature;humidity
71573;BME280;59408;51.032;9.410;2023-05-02T00:00:49;99077.63;;;8.99;95.48
71573;BME280;59408;51.032;9.410;2023-05-02T00:03:15;99074.91;;;8.99;95.72
71573;BME280;59408;51.032;9.410;2023-05-02T00:05:42;99079.06;;;8.96;95.83
71573;BME280;59408;51.032;9.410;2023-05-02T00:08:10;99074.28;;;8.93;94.96
71573;BME280;59408;51.032;9.410;2023-05-02T00:10:37;99078.59;;;8.94;95.60
71573;BME280;59408;51.032;9.410;2023-05-02T00:13:04;99074.63;;;8.92;95.33
71573;BME280;59408;51.032;9.410;2023-05-02T00:15:31;99072.22;;;8.90;95.48
71573;BME280;59408;51.032;9.410;2023-05-02T00:17:57;99062.78;;;8.88;95.37
71573;BME280;59408;51.032;9.410;2023-05-02T00:20:24;99067.09;;;8.89;96.44
71573;BME280;59408;51.032;9.410;2023-05-02T00:22:51;99068.22;;;8.88;95.96
71573;BME280;59408;51.032;9.410;2023-05-02T00:25:19;99074.63;;;8.92;96.38
71573;BME280;59408;51.032;9.410;2023-05-02T00:27:45;99076.19;;;9.01;96.28
71573;BME280;59408;51.032;9.410;2023-05-02T00:30:13;99077.91;;;9.06;95.39
71573;BME280;59408;51.032;9.410;2023-05-02T00:32:39;99074.25;;;9.02;97.06
71573;BME280;59408;51.032;9.410;2023-05-02T00:35:07;99069.78;;;8.97;97.32
71573;BME280;59408;51.032;9.410;2023-05-02T00:37:34;99070.75;;;8.93;98.14
71573;BME280;59408;51.032;9.410;2023-05-02T00:40:00;99065.50;;;8.88;97.73
71573;BME280;59408;51.032;9.410;2023-05-02T00:42:29;99069.69;;;8.85;97.78
71573;BME280;59408;51.032;9.410;2023-05-02T00:44:55;99075.00;;;8.82;98.61
71573;BME280;59408;51.032;9.410;2023-05-02T00:47:22;99075.78;;;8.82;98.25
71573;BME280;59408;51.032;9.410;2023-05-02T00:49:49;99074.81;;;8.78;98.21
71573;BME280;59408;51.032;9.410;2023-05-02T00:52:15;99074.66;;;8.74;99.08
71573;BME280;59408;51.032;9.410;2023-05-02T00:54:42;99082.69;;;8.71;99.50
71573;BME280;59408;51.032;9.410;2023-05-02T00:57:09;99072.78;;;8.66;100.00
71573;BME280;59408;51.032;9.410;2023-05-02T00:59:37;99070.09;;;8.58;100.00
71573;BME280;59408;51.032;9.410;2023-05-02T01:02:21;99078.44;;;8.53;100.00
71573;BME280;59408;51.032;9.410;2023-05-02T01:04:59;99078.94;;;8.46;100.00
71573;BME280;59408;51.032;9.410;2023-05-02T01:07:50;99084.84;;;8.39;100.00
71573;BME280;59408;51.032;9.410;2023-05-02T01:10:28;99090.78;;;8.33;100.00
71573;BME280;59408;51.032;9.410;2023-05-02T01:12:59;99089.81;;;8.29;100.00
71573;BME280;59408;51.032;9.410;2023-05-02T01:15:30;99093.84;;;8.23;100.00
71573;BME280;59408;51.032;9.410;2023-05-02T01:17:59;99100.25;;;8.18;100.00
71573;BME280;59408;51.032;9.410;2023-05-02T01:20:28;99097.38;;;8.15;100.00
71573;BME280;59408;51.032;9.410;2023-05-02T01:23:01;99101.06;;;8.10;100.00
71573;BME280;59408;51.032;9.410;2023-05-02T01:25:32;99104.22;;;8.04;100.00
71573;BME280;59408;51.032;9.410;2023-05-02T01:28:10;99104.41;;;7.98;100.00
71573;BME280;59408;51.032;9.410;2023-05-02T01:30:42;99107.75;;;7.95;100.00
71573;BME280;59408;51.032;9.410;2023-05-02T01:33:13;99111.91;;;7.93;100.00
71573;BME280;59408;51.032;9.410;2023-05-02T01:35:42;99107.63;;;7.92;100.00
71573;BME280;59408;51.032;9.410;2023-05-02T01:38:13;99117.00;;;7.94;100.00
71573;BME280;59408;51.032;9.410;2023-05-02T01:40:40;99106.94;;;7.95;100.00
71573;BME280;59408;51.032;9.410;2023-05-02T01:43:11;99106.16;;;7.94;100.00
71573;BME280;59408;51.032;9.410;2023-05-02T01:45:41;99112.88;;;7.97;100.00
71573;BME280;59408;51.032;9.410;2023-05-02T01:48:09;99116.88;;;7.99;100.00
71573;BME280;59408;51.032;9.410;2023-05-02T01:50:36;99107.13;;;7.98;100.00
71573;BME280;59408;51.032;9.410;2023-05-02T01:53:05;99110.94;;;7.97;100.00
71573;BME280;59408;51.032;9.410;2023-05-02T01:55:34;99118.63;;;7.95;100.00
71573;BME280;59408;51.032;9.410;2023-05-02T01:58:02;99121.19;;;7.92;100.00
71573;BME280;59408;51.032;9.410;2023-05-02T02:00:31;99119.09;;;7.89;100.00
71573;BME280;59408;51.032;9.410;2023-05-02T02:03:00;99114.16;;;7.82;100.00
71573;BME280;59408;51.032;9.410;2023-05-02T02:05:27;99122.44;;;7.77;100.00
71573;BME280;59408;51.032;9.410;2023-05-02T02:07:54;99125.00;;;7.74;100.00
71573;BME280;59408;51.032;9.410;2023-05-02T02:10:21;99131.06;;;7.71;100.00
71573;BME280;59408;51.032;9.410;2023-05-02T02:12:51;99131.38;;;7.69;100.00
71573;BME280;59408;51.032;9.410;2023-05-02T02:15:25;99123.53;;;7.68;100.00
71573;BME280;59408;51.032;9.410;2023-05-02T02:17:57;99130.09;;;7.67;100.00
71573;BME280;59408;51.032;9.410;2023-05-02T02:20:27;99127.22;;;7.63;100.00
71573;BME280;59408;51.032;9.410;2023-05-02T02:22:56;99126.25;;;7.59;100.00
71573;BME280;59408;51.032;9.410;2023-05-02T02:25:24;99124.94;;;7.56;100.00
71573;BME280;59408;51.032;9.410;2023-05-02T02:27:51;99118.41;;;7.49;100.00
71573;BME280;59408;51.032;9.410;2023-05-02T02:30:18;99130.22;;;7.44;100.00
71573;BME280;59408;51.032;9.410;2023-05-02T02:32:44;99129.53;;;7.39;100.00
71573;BME280;59408;51.032;9.410;2023-05-02T02:35:11;99121.25;;;7.35;100.00
71573;BME280;59408;51.032;9.410;2023-05-02T02:37:44;99132.91;;;7.36;100.00
71573;BME280;59408;51.032;9.410;2023-05-02T02:40:17;99136.09;;;7.38;100.00
71573;BME280;59408;51.032;9.410;2023-05-02T02:42:51;99137.22;;;7.37;100.00
71573;BME280;59408;51.032;9.410;2023-05-02T02:45:27;99136.41;;;7.36;100.00
71573;BME280;59408;51.032;9.410;2023-05-02T02:48:03;99140.75;;;7.37;100.00
71573;BME280;59408;51.032;9.410;2023-05-02T02:50:33;99139.94;;;7.37;100.00
71573;BME280;59408;51.032;9.410;2023-05-02T02:53:04;99147.91;;;7.42;100.00
71573;BME280;59408;51.032;9.410;2023-05-02T02:55:38;99144.91;;;7.43;100.00
71573;BME280;59408;51.032;9.410;2023-05-02T02:58:20;99142.97;;;7.44;100.00
71573;BME280;59408;51.032;9.410;2023-05-02T03:00:51;99153.03;;;7.43;100.00
71573;BME280;59408;51.032;9.410;2023-05-02T03:03:19;99160.88;;;7.45;100.00
71573;BME280;59408;51.032;9.410;2023-05-02T03:05:48;99162.47;;;7.46;100.00
71573;BME280;59408;51.032;9.410;2023-05-02T03:08:16;99167.91;;;7.46;100.00
71573;BME280;59408;51.032;9.410;2023-05-02T03:10:42;99169.81;;;7.45;100.00
71573;BME280;59408;51.032;9.410;2023-05-02T03:13:09;99168.69;;;7.46;100.00
71573;BME280;59408;51.032;9.410;2023-05-02T03:16:03;99174.91;;;7.47;100.00
71573;BME280;59408;51.032;9.410;2023-05-02T03:18:31;99174.13;;;7.46;100.00
71573;BME280;59408;51.032;9.410;2023-05-02T03:20:58;99189.28;;;7.47;100.00
71573;BME280;59408;51.032;9.410;2023-05-02T03:23:26;99183.84;;;7.47;100.00
71573;BME280;59408;51.032;9.410;2023-05-02T03:25:52;99194.25;;;7.45;100.00
71573;BME280;59408;51.032;9.410;2023-05-02T03:28:19;99189.13;;;7.44;100.00
71573;BME280;59408;51.032;9.410;2023-05-02T03:30:45;99186.91;;;7.46;100.00
71573;BME280;59408;51.032;9.410;2023-05-02T03:33:12;99189.91;;;7.44;100.00
71573;BME280;59408;51.032;9.410;2023-05-02T03:35:39;99197.75;;;7.46;100.00
71573;BME280;59408;51.032;9.410;2023-05-02T03:38:05;99196.63;;;7.47;100.00
71573;BME280;59408;51.032;9.410;2023-05-02T03:40:33;99194.53;;;7.44;100.00
71573;BME280;59408;51.032;9.410;2023-05-02T03:43:00;99199.78;;;7.40;100.00
71573;BME280;59408;51.032;9.410;2023-05-02T03:45:27;99199.47;;;7.42;100.00
71573;BME280;59408;51.032;9.410;2023-05-02T03:47:53;99200.28;;;7.42;100.00
71573;BME280;59408;51.032;9.410;2023-05-02T03:50:21;99199.78;;;7.40;100.00
71573;BME280;59408;51.032;9.410;2023-05-02T03:52:47;99204.09;;;7.41;100.00
71573;BME280;59408;51.032;9.410;2023-05-02T03:55:14;99206.03;;;7.41;100.00
71573;BME280;59408;51.032;9.410;2023-05-02T03:57:42;99213.06;;;7.42;100.00
71573;BME280;59408;51.032;9.410;2023-05-02T04:00:10;99213.06;;;7.42;100.00
71573;BME280;59408;51.032;9.410;2023-05-02T04:02:36;99212.75;;;7.43;100.00
71573;BME280;59408;51.032;9.410;2023-05-02T04:05:04;99220.09;;;7.43;100.00
71573;BME280;59408;51.032;9.410;2023-05-02T04:07:31;99223.59;;;7.43;100.00
71573;BME280;59408;51.032;9.410;2023-05-02T04:09:57;99226.31;;;7.43;100.00
71573;BME280;59408;51.032;9.410;2023-05-02T04:12:25;99228.41;;;7.46;100.00
71573;BME280;59408;51.032;9.410;2023-05-02T04:14:52;99235.09;;;7.49;100.00
71573;BME280;59408;51.032;9.410;2023-05-02T04:17:20;99239.91;;;7.52;100.00
71573;BME280;59408;51.032;9.410;2023-05-02T04:19:46;99249.34;;;7.54;100.00
71573;BME280;59408;51.032;9.410;2023-05-02T04:22:13;99247.44;;;7.55;100.00
71573;BME280;59408;51.032;9.410;2023-05-02T04:24:39;99253.34;;;7.57;100.00
71573;BME280;59408;51.032;9.410;2023-05-02T04:27:06;99242.81;;;7.55;100.00
71573;BME280;59408;51.032;9.410;2023-05-02T04:29:33;99254.63;;;7.59;100.00
71573;BME280;59408;51.032;9.410;2023-05-02T04:32:01;99255.25;;;7.56;100.00
71573;BME280;59408;51.032;9.410;2023-05-02T04:34:27;99259.56;;;7.57;100.00
71573;BME280;59408;51.032;9.410;2023-05-02T04:36:54;99264.38;;;7.60;100.00
71573;BME280;59408;51.032;9.410;2023-05-02T04:39:21;99268.69;;;7.61;100.00
71573;BME280;59408;51.032;9.410;2023-05-02T04:41:47;99268.06;;;7.65;100.00
71573;BME280;59408;51.032;9.410;2023-05-02T04:44:14;99277.97;;;7.69;100.00
71573;BME280;59408;51.032;9.410;2023-05-02T04:46:41;99281.19;;;7.71;100.00
71573;BME280;59408;51.032;9.410;2023-05-02T04:49:09;99284.06;;;7.75;100.00
71573;BME280;59408;51.032;9.410;2023-05-02T04:51:35;99280.41;;;7.79;100.00
71573;BME280;59408;51.032;9.410;2023-05-02T04:54:02;99288.75;;;7.83;100.00
71573;BME280;59408;51.032;9.410;2023-05-02T04:56:28;99290.81;;;7.86;100.00
71573;BME280;59408;51.032;9.410;2023-05-02T04:58:55;99291.31;;;7.88;100.00
71573;BME280;59408;51.032;9.410;2023-05-02T05:01:22;99300.44;;;7.92;100.00
71573;BME280;59408;51.032;9.410;2023-05-02T05:03:49;99300.59;;;7.95;100.00
71573;BME280;59408;51.032;9.410;2023-05-02T05:06:17;99310.34;;;7.96;100.00
71573;BME280;59408;51.032;9.410;2023-05-02T05:08:44;99311.63;;;7.99;100.00
71573;BME280;59408;51.032;9.410;2023-05-02T05:11:10;99316.59;;;8.06;100.00
71573;BME280;59408;51.032;9.410;2023-05-02T05:13:37;99323.50;;;8.12;100.00
71573;BME280;59408;51.032;9.410;2023-05-02T05:16:04;99327.19;;;8.16;100.00
71573;BME280;59408;51.032;9.410;2023-05-02T05:18:31;99326.72;;;8.22;100.00
71573;BME280;59408;51.032;9.410;2023-05-02T05:20:58;99331.69;;;8.29;100.00
71573;BME280;59408;51.032;9.410;2023-05-02T05:23:26;99324.50;;;8.33;100.00
71573;BME280;59408;51.032;9.410;2023-05-02T05:25:52;99327.06;;;8.38;100.00
71573;BME280;59408;51.032;9.410;2023-05-02T05:28:19;99335.88;;;8.44;100.00
71573;BME280;59408;51.032;9.410;2023-05-02T05:30:45;99338.13;;;8.50;100.00
71573;BME280;59408;51.032;9.410;2023-05-02T05:33:12;99339.25;;;8.58;100.00
71573;BME280;59408;51.032;9.410;2023-05-02T05:35:39;99348.06;;;8.63;100.00
71573;BME280;59408;51.032;9.410;2023-05-02T05:38:05;99347.59;;;8.70;100.00
71573;BME280;59408;51.032;9.410;2023-05-02T05:40:33;99352.56;;;8.76;100.00
71573;BME280;59408;51.032;9.410;2023-05-02T05:43:00;99362.63;;;8.85;100.00
71573;BME280;59408;51.032;9.410;2023-05-02T05:45:27;99359.28;;;8.88;100.00
71573;BME280;59408;51.032;9.410;2023-05-02T05:47:53;99363.78;;;8.92;100.00
71573;BME280;59408;51.032;9.410;2023-05-02T05:50:20;99368.56;;;8.95;100.00
71573;BME280;59408;51.032;9.410;2023-05-02T05:52:46;99365.84;;;9.04;100.00
71573;BME280;59408;51.032;9.410;2023-05-02T05:55:13;99374.66;;;9.09;100.00
71573;BME280;59408;51.032;9.410;2023-05-02T05:57:41;99377.88;;;9.20;100.00
71573;BME280;59408;51.032;9.410;2023-05-02T06:00:08;99373.41;;;9.24;100.00
71573;BME280;59408;51.032;9.410;2023-05-02T06:02:35;99375.00;;;9.25;100.00
71573;BME280;59408;51.032;9.410;2023-05-02T06:05:02;99381.38;;;9.29;100.00
71573;BME280;59408;51.032;9.410;2023-05-02T06:07:29;99385.72;;;9.39;100.00
71573;BME280;59408;51.032;9.410;2023-05-02T06:09:55;99380.25;;;9.47;99.19
71573;BME280;59408;51.032;9.410;2023-05-02T06:12:22;99390.97;;;9.61;99.18
71573;BME280;59408;51.032;9.410;2023-05-02T06:14:50;99394.78;;;9.69;96.47
71573;BME280;59408;51.032;9.410;2023-05-02T06:17:17;99396.41;;;9.70;95.99
71573;BME280;59408;51.032;9.410;2023-05-02T06:19:43;99398.81;;;9.71;96.36
71573;BME280;59408;51.032;9.410;2023-05-02T06:22:11;99405.53;;;9.65;94.70
71573;BME280;59408;51.032;9.410;2023-05-02T06:24:37;99407.59;;;9.68;94.65
71573;BME280;59408;51.032;9.410;2023-05-02T06:27:04;99413.84;;;9.69;94.27
71573;BME280;59408;51.032;9.410;2023-05-02T06:29:31;99419.00;;;9.70;92.86
71573;BME280;59408;51.032;9.410;2023-05-02T06:31:58;99422.03;;;9.69;92.70
71573;BME280;59408;51.032;9.410;2023-05-02T06:34:25;99425.03;;;9.84;92.13
71573;BME280;59408;51.032;9.410;2023-05-02T06:36:53;99427.75;;;9.93;92.83
71573;BME280;59408;51.032;9.410;2023-05-02T06:39:20;99424.84;;;9.98;92.50
71573;BME280;59408;51.032;9.410;2023-05-02T06:41:46;99425.81;;;9.94;91.10
71573;BME280;59408;51.032;9.410;2023-05-02T06:44:13;99426.47;;;9.99;90.69
71573;BME280;59408;51.032;9.410;2023-05-02T06:46:40;99429.97;;;10.08;90.46
71573;BME280;59408;51.032;9.410;2023-05-02T06:49:08;99437.50;;;10.03;89.26
71573;BME280;59408;51.032;9.410;2023-05-02T06:51:34;99430.91;;;10.04;89.38
71573;BME280;59408;51.032;9.410;2023-05-02T06:54:01;99442.78;;;10.08;90.79
71573;BME280;59408;51.032;9.410;2023-05-02T06:56:27;99440.22;;;10.03;88.90
71573;BME280;59408;51.032;9.410;2023-05-02T06:58:54;99433.66;;;10.04;88.58
71573;BME280;59408;51.032;9.410;2023-05-02T07:01:21;99447.28;;;10.04;89.38
71573;BME280;59408;51.032;9.410;2023-05-02T07:03:47;99450.00;;;10.04;89.55
71573;BME280;59408;51.032;9.410;2023-05-02T07:06:15;99450.63;;;10.09;89.35
71573;BME280;59408;51.032;9.410;2023-05-02T07:08:42;99454.31;;;10.13;88.72
71573;BME280;59408;51.032;9.410;2023-05-02T07:11:09;99455.59;;;10.16;89.01
71573;BME280;59408;51.032;9.410;2023-05-02T07:13:35;99465.53;;;10.12;89.43
71573;BME280;59408;51.032;9.410;2023-05-02T07:16:02;99455.75;;;10.11;89.09
71573;BME280;59408;51.032;9.410;2023-05-02T07:18:29;99461.19;;;10.11;88.73
71573;BME280;59408;51.032;9.410;2023-05-02T07:20:55;99472.22;;;10.23;88.50
71573;BME280;59408;51.032;9.410;2023-05-02T07:23:26;99470.75;;;10.34;87.62
71573;BME280;59408;51.032;9.410;2023-05-02T07:25:52;99474.41;;;10.47;87.15
71573;BME280;59408;51.032;9.410;2023-05-02T07:28:19;99479.91;;;10.68;86.16
71573;BME280;59408;51.032;9.410;2023-05-02T07:30:48;99468.34;;;10.71;85.48
71573;BME280;59408;51.032;9.410;2023-05-02T07:33:14;99474.28;;;11.02;84.89
71573;BME280;59408;51.032;9.410;2023-05-02T07:35:42;99479.50;;;11.78;85.48
71573;BME280;59408;51.032;9.410;2023-05-02T07:38:09;99468.53;;;12.44;80.79
71573;BME280;59408;51.032;9.410;2023-05-02T07:40:37;99480.75;;;12.46;77.49
71573;BME280;59408;51.032;9.410;2023-05-02T07:43:03;99479.66;;;11.94;78.11
71573;BME280;59408;51.032;9.410;2023-05-02T07:45:30;99490.34;;;11.66;80.40
71573;BME280;59408;51.032;9.410;2023-05-02T07:47:57;99492.06;;;11.38;81.69
71573;BME280;59408;51.032;9.410;2023-05-02T07:50:23;99499.22;;;11.21;81.92
71573;BME280;59408;51.032;9.410;2023-05-02T07:52:50;99504.81;;;11.25;82.84
71573;BME280;59408;51.032;9.410;2023-05-02T07:55:17;99501.44;;;11.69;81.38
71573;BME280;59408;51.032;9.410;2023-05-02T07:57:45;99491.13;;;11.87;79.70
71573;BME280;59408;51.032;9.410;2023-05-02T08:00:12;99509.22;;;11.80;79.72
71573;BME280;59408;51.032;9.410;2023-05-02T08:02:40;99505.22;;;11.77;79.44
71573;BME280;59408;51.032;9.410;2023-05-02T08:05:07;99507.78;;;11.94;80.64
71573;BME280;59408;51.032;9.410;2023-05-02T08:07:34;99508.19;;;11.84;79.83
71573;BME280;59408;51.032;9.410;2023-05-02T08:10:02;99506.75;;;11.87;80.08
71573;BME280;59408;51.032;9.410;2023-05-02T08:12:29;99524.56;;;11.93;79.93
71573;BME280;59408;51.032;9.410;2023-05-02T08:14:57;99517.41;;;12.12;80.40
71573;BME280;59408;51.032;9.410;2023-05-02T08:17:23;99514.38;;;12.47;77.58
71573;BME280;59408;51.032;9.410;2023-05-02T08:19:50;99516.66;;;12.69;78.00
71573;BME280;59408;51.032;9.410;2023-05-02T08:22:17;99520.16;;;13.31;76.29
71573;BME280;59408;51.032;9.410;2023-05-02T08:24:43;99527.59;;;13.54;73.60
71573;BME280;59408;51.032;9.410;2023-05-02T08:27:10;99532.41;;;12.84;76.15
71573;BME280;59408;51.032;9.410;2023-05-02T08:29:36;99531.94;;;12.70;76.07
71573;BME280;59408;51.032;9.410;2023-05-02T08:32:04;99527.34;;;12.50;78.41
71573;BME280;59408;51.032;9.410;2023-05-02T08:34:31;99536.13;;;12.43;76.93
71573;BME280;59408;51.032;9.410;2023-05-02T08:36:57;99540.13;;;12.58;76.64
71573;BME280;59408;51.032;9.410;2023-05-02T08:39:24;99542.53;;;12.60;74.74
71573;BME280;59408;51.032;9.410;2023-05-02T08:41:51;99533.97;;;12.49;77.07
71573;BME280;59408;51.032;9.410;2023-05-02T08:44:18;99538.44;;;12.66;75.06
71573;BME280;59408;51.032;9.410;2023-05-02T08:46:45;99547.56;;;12.70;76.20
71573;BME280;59408;51.032;9.410;2023-05-02T08:49:14;99542.66;;;12.75;75.25
71573;BME280;59408;51.032;9.410;2023-05-02T08:51:43;99539.38;;;12.82;74.12
71573;BME280;59408;51.032;9.410;2023-05-02T08:54:10;99549.06;;;13.04;74.97
71573;BME280;59408;51.032;9.410;2023-05-02T08:56:42;99551.94;;;13.56;75.16
71573;BME280;59408;51.032;9.410;2023-05-02T08:59:08;99553.75;;;13.40;71.01
71573;BME280;59408;51.032;9.410;2023-05-02T09:01:36;99547.41;;;13.76;70.23
71573;BME280;59408;51.032;9.410;2023-05-02T09:04:07;99545.91;;;14.34;68.41
71573;BME280;59408;51.032;9.410;2023-05-02T09:06:35;99555.56;;;14.44;67.55
71573;BME280;59408;51.032;9.410;2023-05-02T09:09:01;99554.13;;;15.09;66.20
71573;BME280;59408;51.032;9.410;2023-05-02T09:11:28;99561.44;;;15.36;67.81
71573;BME280;59408;51.032;9.410;2023-05-02T09:13:55;99566.75;;;15.45;64.78
71573;BME280;59408;51.032;9.410;2023-05-02T09:16:23;99555.75;;;15.45;64.90
71573;BME280;59408;51.032;9.410;2023-05-02T09:18:52;99564.66;;;15.58;64.44
71573;BME280;59408;51.032;9.410;2023-05-02T09:21:20;99563.78;;;15.03;64.12
71573;BME280;59408;51.032;9.410;2023-05-02T09:23:51;99564.31;;;14.33;69.06
71573;BME280;59408;51.032;9.410;2023-05-02T09:26:19;99579.53;;;14.03;70.34
71573;BME280;59408;51.032;9.410;2023-05-02T09:28:47;99579.63;;;13.79;70.57
71573;BME280;59408;51.032;9.410;2023-05-02T09:31:15;99584.00;;;13.55;69.65
71573;BME280;59408;51.032;9.410;2023-05-02T09:34:07;99590.97;;;13.65;70.42
71573;BME280;59408;51.032;9.410;2023-05-02T09:36:38;99598.06;;;13.54;72.36
71573;BME280;59408;51.032;9.410;2023-05-02T09:39:09;99600.13;;;13.45;70.79
71573;BME280;59408;51.032;9.410;2023-05-02T09:41:38;99601.44;;;13.02;73.26
71573;BME280;59408;51.032;9.410;2023-05-02T09:44:08;99599.97;;;12.47;73.86
71573;BME280;59408;51.032;9.410;2023-05-02T09:46:38;99610.06;;;12.68;76.69
71573;BME280;59408;51.032;9.410;2023-05-02T09:49:05;99612.91;;;12.59;76.58
71573;BME280;59408;51.032;9.410;2023-05-02T09:51:32;99617.75;;;12.74;78.62
71573;BME280;59408;51.032;9.410;2023-05-02T09:53:58;99613.59;;;12.68;74.78
71573;BME280;59408;51.032;9.410;2023-05-02T09:56:26;99616.38;;;12.80;75.83
71573;BME280;59408;51.032;9.410;2023-05-02T09:59:11;99613.19;;;13.03;74.14
71573;BME280;59408;51.032;9.410;2023-05-02T10:01:39;99618.59;;;13.23;77.66
71573;BME280;59408;51.032;9.410;2023-05-02T10:04:09;99617.25;;;13.42;73.54
71573;BME280;59408;51.032;9.410;2023-05-02T10:06:37;99627.75;;;13.64;74.52
71573;BME280;59408;51.032;9.410;2023-05-02T10:09:04;99622.22;;;13.88;73.76
71573;BME280;59408;51.032;9.410;2023-05-02T10:11:32;99619.22;;;14.33;72.04
71573;BME280;59408;51.032;9.410;2023-05-02T10:13:59;99613.47;;;14.39;69.08
71573;BME280;59408;51.032;9.410;2023-05-02T10:16:27;99611.28;;;15.03;72.12
71573;BME280;59408;51.032;9.410;2023-05-02T10:18:59;99611.19;;;15.63;65.85
71573;BME280;59408;51.032;9.410;2023-05-02T10:21:29;99613.06;;;16.32;64.18
71573;BME280;59408;51.032;9.410;2023-05-02T10:23:56;99620.72;;;16.42;62.56
71573;BME280;59408;51.032;9.410;2023-05-02T10:26:23;99623.47;;;16.23;61.43
71573;BME280;59408;51.032;9.410;2023-05-02T10:28:52;99608.06;;;15.48;62.10
71573;BME280;59408;51.032;9.410;2023-05-02T10:31:21;99613.13;;;15.31;61.34
71573;BME280;59408;51.032;9.410;2023-05-02T10:33:50;99625.28;;;14.98;63.94
71573;BME280;59408;51.032;9.410;2023-05-02T10:36:21;99615.00;;;14.52;65.78
71573;BME280;59408;51.032;9.410;2023-05-02T10:38:48;99617.97;;;13.91;65.68
71573;BME280;59408;51.032;9.410;2023-05-02T10:41:18;99627.13;;;13.22;68.95
71573;BME280;59408;51.032;9.410;2023-05-02T10:43:47;99625.09;;;12.62;74.55
71573;BME280;59408;51.032;9.410;2023-05-02T10:46:31;99643.31;;;12.25;74.32
71573;BME280;59408;51.032;9.410;2023-05-02T10:49:02;99642.63;;;12.07;76.58
71573;BME280;59408;51.032;9.410;2023-05-02T10:51:29;99641.75;;;11.94;76.60
71573;BME280;59408;51.032;9.410;2023-05-02T10:54:17;99641.72;;;12.24;77.73
71573;BME280;59408;51.032;9.410;2023-05-02T10:57:03;99641.69;;;12.44;78.18
71573;BME280;59408;51.032;9.410;2023-05-02T10:59:35;99647.41;;;12.52;74.37
71573;BME280;59408;51.032;9.410;2023-05-02T11:02:03;99640.69;;;12.82;77.51
71573;BME280;59408;51.032;9.410;2023-05-02T11:04:58;99640.28;;;13.29;76.29
71573;BME280;59408;51.032;9.410;2023-05-02T11:07:26;99648.19;;;12.85;75.65
71573;BME280;59408;51.032;9.410;2023-05-02T11:09:53;99656.97;;;12.78;75.21
71573;BME280;59408;51.032;9.410;2023-05-02T11:12:43;99648.09;;;12.81;77.30
71573;BME280;59408;51.032;9.410;2023-05-02T11:15:10;99649.16;;;13.01;72.70
71573;BME280;59408;51.032;9.410;2023-05-02T11:17:59;99650.47;;;13.40;73.84
71573;BME280;59408;51.032;9.410;2023-05-02T11:20:27;99654.81;;;13.66;73.53
71573;BME280;59408;51.032;9.410;2023-05-02T11:22:58;99646.66;;;14.33;76.15
71573;BME280;59408;51.032;9.410;2023-05-02T11:25:45;99641.13;;;14.74;72.81
71573;BME280;59408;51.032;9.410;2023-05-02T11:34:16;99649.50;;;13.97;65.23
71573;BME280;59408;51.032;9.410;2023-05-02T11:36:44;99660.31;;;14.18;65.38
71573;BME280;59408;51.032;9.410;2023-05-02T11:39:18;99650.78;;;13.87;66.15
71573;BME280;59408;51.032;9.410;2023-05-02T11:41:45;99659.00;;;13.87;66.71
71573;BME280;59408;51.032;9.410;2023-05-02T11:44:12;99663.97;;;13.45;67.83
71573;BME280;59408;51.032;9.410;2023-05-02T11:46:39;99664.81;;;12.68;71.70
71573;BME280;59408;51.032;9.410;2023-05-02T11:49:06;99667.63;;;12.59;74.49
71573;BME280;59408;51.032;9.410;2023-05-02T11:51:37;99670.78;;;12.49;76.45
71573;BME280;59408;51.032;9.410;2023-05-02T11:54:06;99676.66;;;12.39;77.14
71573;BME280;59408;51.032;9.410;2023-05-02T11:56:34;99678.16;;;12.16;76.35
71573;BME280;59408;51.032;9.410;2023-05-02T11:59:02;99706.19;;;12.04;77.08
71573;BME280;59408;51.032;9.410;2023-05-02T12:01:29;99699.41;;;12.10;76.66
71573;BME280;59408;51.032;9.410;2023-05-02T12:04:02;99710.16;;;11.86;76.52
71573;BME280;59408;51.032;9.410;2023-05-02T12:06:32;99702.53;;;11.70;77.41
71573;BME280;59408;51.032;9.410;2023-05-02T12:09:07;99712.19;;;11.30;77.14
71573;BME280;59408;51.032;9.410;2023-05-02T12:11:34;99719.00;;;11.15;79.11
71573;BME280;59408;51.032;9.410;2023-05-02T12:14:02;99720.75;;;11.20;78.78
71573;BME280;59408;51.032;9.410;2023-05-02T12:16:29;99725.81;;;11.38;81.04
71573;BME280;59408;51.032;9.410;2023-05-02T12:18:57;99712.63;;;11.41;78.01
71573;BME280;59408;51.032;9.410;2023-05-02T12:21:24;99720.94;;;11.53;79.06
71573;BME280;59408;51.032;9.410;2023-05-02T12:23:51;99737.50;;;11.86;78.52
71573;BME280;59408;51.032;9.410;2023-05-02T12:26:23;99734.97;;;11.43;77.48
71573;BME280;59408;51.032;9.410;2023-05-02T12:28:51;99741.97;;;11.90;80.10
71573;BME280;59408;51.032;9.410;2023-05-02T12:31:21;99750.19;;;12.11;78.71
71573;BME280;59408;51.032;9.410;2023-05-02T12:33:48;99748.59;;;12.19;76.99
71573;BME280;59408;51.032;9.410;2023-05-02T12:36:15;99753.22;;;12.27;76.92
71573;BME280;59408;51.032;9.410;2023-05-02T12:38:47;99753.94;;;12.06;74.61
71573;BME280;59408;51.032;9.410;2023-05-02T12:41:15;99761.81;;;12.08;76.83
71573;BME280;59408;51.032;9.410;2023-05-02T12:43:48;99759.19;;;12.20;75.98
71573;BME280;59408;51.032;9.410;2023-05-02T12:46:15;99763.75;;;12.07;76.22
71573;BME280;59408;51.032;9.410;2023-05-02T12:51:25;99776.94;;;12.05;76.50
71573;BME280;59408;51.032;9.410;2023-05-02T12:53:52;99777.09;;;11.80;75.83
71573;BME280;59408;51.032;9.410;2023-05-02T12:56:19;99781.88;;;11.91;77.59
71573;BME280;59408;51.032;9.410;2023-05-02T12:58:54;99780.28;;;12.11;78.25
71573;BME280;59408;51.032;9.410;2023-05-02T13:01:38;99779.72;;;11.97;76.01
71573;BME280;59408;51.032;9.410;2023-05-02T13:04:07;99785.53;;;11.95;78.04
71573;BME280;59408;51.032;9.410;2023-05-02T13:06:34;99780.34;;;12.02;77.42
71573;BME280;59408;51.032;9.410;2023-05-02T13:09:00;99787.50;;;11.86;74.57
71573;BME280;59408;51.032;9.410;2023-05-02T13:11:27;99796.56;;;12.07;76.96
71573;BME280;59408;51.032;9.410;2023-05-02T13:13:55;99795.75;;;12.07;76.81
71573;BME280;59408;51.032;9.410;2023-05-02T13:16:22;99796.22;;;12.18;77.03
71573;BME280;59408;51.032;9.410;2023-05-02T13:18:48;99794.13;;;12.15;75.95